Zim Qingdao — A8IZ2 — position and weather

sailwx.info

Track history (hours):
 
Tides and Currents Weather Stations Pressure Air Temp Water Temp Dewpoint Dewpoint Depression Visibility Wind Speed Wind Dir Waves Ship Positions

Zim Qingdao

Last reported at 2017-Apr-24 06:00 UTC. Time now 2017-Apr-24 07:19 UTC.
Position N 40°12' W 049°12'.

Length 260.61 m; beam 32.25 m; draft 12.6 m.

Type: Ship (hazmat cat A). MMSI: 636012904.

Wind from 250 at 12 knots

Barometer 1011.0 mb
Air temperature 15.0 ° C
Visibility: greater than 10.8 NM
Dewpoint 13.0 ° C

Date/timePositionNaut miles runAvg speedWind from/ knotsBaromVisibWave heightAir tempDewpointWater temp
2017-Apr-24 06:00N 40°12' W 049°12'18415.3 250 / 121011.010.8 15.013.0
2017-Apr-23 18:00N 40°06' W 045°12'19716.4 070 / 121007.010.8 18.015.0
2017-Apr-23 06:00N 40°12' W 040°54'18815.7 160 / 171003.010.8 18.016.0
2017-Apr-22 18:00N 40°12' W 036°48'31016.5 130 / 201011.0 5.4 18.016.0
2017-Apr-21 23:12N 39°54' W 030°03'2116.6
2017-Apr-21 21:56N 39°52' W 029°36'716.3
2017-Apr-21 21:30N 39°51' W 029°27'816.1
2017-Apr-21 21:00N 39°50' W 029°17'816.2
2017-Apr-21 20:30N 39°50' W 029°06'816.2
2017-Apr-21 19:59N 39°49' W 028°55'816.4
2017-Apr-21 19:30N 39°48' W 028°45'816.3
2017-Apr-21 19:00N 39°47' W 028°34'816.0
2017-Apr-21 18:30N 39°46' W 028°24'816.3
2017-Apr-21 18:00N 39°45' W 028°14'3207.5
2017-Apr-21 18:00N 39°42' W 028°12'714.5 070 / 101018.010.8 16.013.0
2017-Apr-21 17:30N 39°44' W 028°03'816.2
2017-Apr-21 17:00N 39°43' W 027°53'916.4
2017-Apr-21 16:27N 39°42' W 027°41'916.0
2017-Apr-21 15:56N 39°41' W 027°30'716.2
2017-Apr-21 15:28N 39°40' W 027°21'15216.0
2017-Apr-21 06:00N 39°18' W 024°06'11919.8 360 / 151015.010.8 14.011.0
2017-Apr-21 00:00N 38°54' W 021°36'10016.7 010 / 151013.5 5.4 14.011.015.0
2017-Apr-20 18:00N 38°36' W 019°30'32818.2 360 / 151013.010.8 15.012.0
2017-Apr-20 00:00N 37°12' W 012°48'15017.6 350 / 181010.010.8 18.015.0
2017-Apr-19 15:28N 36°28' W 009°49'9719.0
2017-Apr-19 10:21N 36°08' W 007°51'1519.1
2017-Apr-19 09:34N 36°05' W 007°33'7919.1
2017-Apr-19 05:26N 35°58' W 005°56'1119.2
2017-Apr-19 04:50N 35°58' W 005°42'618.5
2017-Apr-19 04:30N 35°59' W 005°34'817.0
2017-Apr-19 04:00N 36°02' W 005°25'5 9.9
2017-Apr-19 03:30N 36°07' W 005°25'1 1.9
2017-Apr-19 03:00N 36°08' W 005°25'0 0.0
2017-Apr-19 02:30N 36°08' W 005°25'0 0.0
2017-Apr-19 02:00N 36°08' W 005°25'0 0.0
2017-Apr-19 01:30N 36°08' W 005°25'0 0.0
2017-Apr-19 00:57N 36°08' W 005°25'0 0.0
2017-Apr-19 00:30N 36°08' W 005°25'0 0.0
2017-Apr-19 00:00N 36°08' W 005°25'0 0.0
2017-Apr-18 23:30N 36°08' W 005°25'0 0.0
2017-Apr-18 23:00N 36°08' W 005°25'1 2.5
2017-Apr-18 22:30N 36°08' W 005°24'3 5.5
2017-Apr-18 22:00N 36°05' W 005°23'1 1.5
2017-Apr-18 21:31N 36°05' W 005°23'612.9
2017-Apr-18 21:00N 36°05' W 005°15'713.8
2017-Apr-18 20:30N 36°05' W 005°07'713.8
2017-Apr-18 20:00N 36°06' W 004°58'714.2
2017-Apr-18 19:30N 36°07' W 004°50'1014.2
2017-Apr-18 18:48N 36°08' W 004°37'414.3
2017-Apr-18 18:30N 36°09' W 004°32'713.7
2017-Apr-18 18:00N 36°10' W 004°24'713.6
2017-Apr-18 17:29N 36°11' W 004°15'713.6
2017-Apr-18 17:00N 36°12' W 004°07'714.3
2017-Apr-18 16:30N 36°13' W 003°58'714.1
2017-Apr-18 16:00N 36°14' W 003°50'713.9
2017-Apr-18 15:28N 36°15' W 003°41'713.8
2017-Apr-18 14:57N 36°16' W 003°32'613.5
2017-Apr-18 14:30N 36°17' W 003°24'1413.9
2017-Apr-18 13:30N 36°19' W 003°07'12213.4
2017-Apr-18 04:22N 37°20' W 000°55'615.2
2017-Apr-18 03:59N 37°24' W 000°49'715.2
2017-Apr-18 03:30N 37°29' W 000°42'815.3
2017-Apr-18 02:58N 37°34' W 000°34'715.1
2017-Apr-18 02:30N 37°40' W 000°29'1415.2
2017-Apr-18 01:34N 37°52' W 000°19'115.0
2017-Apr-18 01:29N 37°53' W 000°18'715.0
2017-Apr-18 01:00N 37°59' W 000°14'8612.0
2017-Apr-17 17:49N 39°25' W 000°16'3 8.6
2017-Apr-17 17:30N 39°26' W 000°19'1 1.3
2017-Apr-17 17:00N 39°27' W 000°19'0 0.0
2017-Apr-17 16:27N 39°27' W 000°19'0 0.0
2017-Apr-17 15:57N 39°27' W 000°19'0 0.0
2017-Apr-17 15:30N 39°27' W 000°19'0 0.0
2017-Apr-17 14:57N 39°27' W 000°19'0 0.0
2017-Apr-17 14:00N 39°27' W 000°19'0 0.0
2017-Apr-17 13:27N 39°27' W 000°19'0 0.0
2017-Apr-17 13:00N 39°27' W 000°19'0 0.0
2017-Apr-17 12:30N 39°27' W 000°19'0 0.0
2017-Apr-17 12:00N 39°27' W 000°19'0 0.0
2017-Apr-17 11:30N 39°27' W 000°19'0 0.0
2017-Apr-17 11:00N 39°27' W 000°19'0 0.0
2017-Apr-17 10:30N 39°27' W 000°19'0 0.0
2017-Apr-17 09:57N 39°27' W 000°19'0 0.0
2017-Apr-17 09:27N 39°27' W 000°19'0 0.0
2017-Apr-17 08:57N 39°27' W 000°19'0 0.1
2017-Apr-17 08:27N 39°27' W 000°19'0 0.0
2017-Apr-17 07:57N 39°27' W 000°19'0 0.0
2017-Apr-17 07:30N 39°27' W 000°19'0 0.0
2017-Apr-17 07:00N 39°27' W 000°19'0 0.0
2017-Apr-17 06:30N 39°27' W 000°19'0 0.0
2017-Apr-17 05:57N 39°27' W 000°19'0 0.0
2017-Apr-17 05:30N 39°27' W 000°19'0 0.0
2017-Apr-17 04:57N 39°27' W 000°19'0 0.1
2017-Apr-17 04:30N 39°27' W 000°19'0 0.0
2017-Apr-17 04:00N 39°27' W 000°19'0 0.0
2017-Apr-17 03:27N 39°27' W 000°19'0 0.0
2017-Apr-17 02:51N 39°27' W 000°19'0 0.0
2017-Apr-17 02:27N 39°27' W 000°19'0 0.0
2017-Apr-17 02:00N 39°27' W 000°19'0 0.0
2017-Apr-17 01:30N 39°27' W 000°19'0 0.0
2017-Apr-17 01:00N 39°27' W 000°19'0 0.0
2017-Apr-17 00:30N 39°27' W 000°19'0 0.0
2017-Apr-17 00:00N 39°27' W 000°19'0 0.0
2017-Apr-16 23:30N 39°27' W 000°19'0 0.0
2017-Apr-16 23:00N 39°27' W 000°19'0 0.0
2017-Apr-16 22:30N 39°27' W 000°19'0 0.0
2017-Apr-16 22:00N 39°27' W 000°19'0 0.0
2017-Apr-16 21:30N 39°27' W 000°19'0 0.0
2017-Apr-16 21:00N 39°27' W 000°19'0 0.0
2017-Apr-16 20:30N 39°27' W 000°19'0 0.0
2017-Apr-16 20:00N 39°27' W 000°19'0 0.0
2017-Apr-16 19:30N 39°27' W 000°19'0 0.0
2017-Apr-16 19:01N 39°27' W 000°19'2 4.7
2017-Apr-16 18:30N 39°25' W 000°17'5 9.8
2017-Apr-16 17:59N 39°27' W 000°11'812.1
2017-Apr-16 17:20N 39°32' W 000°03'6512.0
2017-Apr-16 11:52N 40°17' E 000°58'512.6
2017-Apr-16 11:30N 40°20' E 001°03'612.8
2017-Apr-16 11:00N 40°24' E 001°09'612.7
2017-Apr-16 10:30N 40°28' E 001°15'612.9
2017-Apr-16 10:00N 40°33' E 001°22'713.0
2017-Apr-16 09:30N 40°37' E 001°28'612.7
2017-Apr-16 09:00N 40°42' E 001°34'612.9
2017-Apr-16 08:30N 40°47' E 001°39'612.8
2017-Apr-16 08:00N 40°52' E 001°44'612.8
2017-Apr-16 07:30N 40°57' E 001°50'612.8
2017-Apr-16 07:00N 41°02' E 001°55'812.9
2017-Apr-16 06:24N 41°08' E 002°01'712.5
2017-Apr-16 05:49N 41°14' E 002°07'8 1.1
2017-Apr-15 22:55N 41°21' E 002°10'0 1.0
2017-Apr-15 22:28N 41°21' E 002°10'3 5.1
2017-Apr-15 21:50N 41°18' E 002°11'1413.6
2017-Apr-15 20:47N 41°10' E 002°27'414.9
2017-Apr-15 20:30N 41°08' E 002°32'815.2
2017-Apr-15 20:00N 41°04' E 002°41'815.4
2017-Apr-15 19:30N 41°01' E 002°50'815.5
2017-Apr-15 19:00N 40°57' E 002°59'815.7
2017-Apr-15 18:30N 40°53' E 003°08'815.6
2017-Apr-15 18:00N 40°49' E 003°17'815.7
2017-Apr-15 17:30N 40°45' E 003°26'26916.0
2017-Apr-15 00:42N 38°34' E 008°31'316.4
2017-Apr-15 00:30N 38°33' E 008°35'816.4
2017-Apr-15 00:00N 38°29' E 008°44'816.2
2017-Apr-14 23:30N 38°25' E 008°53'816.3
2017-Apr-14 23:00N 38°21' E 009°02'816.2
2017-Apr-14 22:30N 38°17' E 009°12'916.2
2017-Apr-14 21:58N 38°13' E 009°21'1016.1
2017-Apr-14 21:22N 38°09' E 009°32'816.2
2017-Apr-14 20:51N 38°05' E 009°41'5416.1
2017-Apr-14 17:31N 37°40' E 010°41'015.9
2017-Apr-14 17:30N 37°40' E 010°42'815.9
2017-Apr-14 17:00N 37°36' E 010°51'916.0
2017-Apr-14 16:26N 37°31' E 011°01'716.4
2017-Apr-14 16:00N 37°28' E 011°09'816.5
2017-Apr-14 15:30N 37°24' E 011°18'14516.0
2017-Apr-14 06:27N 36°34' E 014°07'  
Track history (hours):
 
Tides and Currents Weather Stations Pressure Air Temp Water Temp Dewpoint Dewpoint Depression Visibility Wind Speed Wind Dir Waves Ship Positions

Zim Qingdao

Last reported at 2017-Apr-24 06:00 UTC. Time now 2017-Apr-24 07:19 UTC.
Position N 40°12' W 049°12'.

Length 260.61 m; beam 32.25 m; draft 12.6 m.

Type: Ship (hazmat cat A). MMSI: 636012904.

Wind from 250 at 12 knots

Barometer 1011.0 mb
Air temperature 15.0 ° C
Visibility: greater than 10.8 NM
Dewpoint 13.0 ° C

Date/timePositionNaut miles runAvg speedWind from/ knotsBaromVisibWave heightAir tempDewpointWater temp
2017-Apr-24 06:00N 40°12' W 049°12'18415.3 250 / 121011.010.8 15.013.0
2017-Apr-23 18:00N 40°06' W 045°12'19716.4 070 / 121007.010.8 18.015.0
2017-Apr-23 06:00N 40°12' W 040°54'18815.7 160 / 171003.010.8 18.016.0
2017-Apr-22 18:00N 40°12' W 036°48'31016.5 130 / 201011.0 5.4 18.016.0
2017-Apr-21 23:12N 39°54' W 030°03'2116.6
2017-Apr-21 21:56N 39°52' W 029°36'716.3
2017-Apr-21 21:30N 39°51' W 029°27'816.1
2017-Apr-21 21:00N 39°50' W 029°17'816.2
2017-Apr-21 20:30N 39°50' W 029°06'816.2
2017-Apr-21 19:59N 39°49' W 028°55'816.4
2017-Apr-21 19:30N 39°48' W 028°45'816.3
2017-Apr-21 19:00N 39°47' W 028°34'816.0
2017-Apr-21 18:30N 39°46' W 028°24'816.3
2017-Apr-21 18:00N 39°45' W 028°14'3207.5
2017-Apr-21 18:00N 39°42' W 028°12'714.5 070 / 101018.010.8 16.013.0
2017-Apr-21 17:30N 39°44' W 028°03'816.2
2017-Apr-21 17:00N 39°43' W 027°53'916.4
2017-Apr-21 16:27N 39°42' W 027°41'916.0
2017-Apr-21 15:56N 39°41' W 027°30'716.2
2017-Apr-21 15:28N 39°40' W 027°21'15216.0
2017-Apr-21 06:00N 39°18' W 024°06'11919.8 360 / 151015.010.8 14.011.0
2017-Apr-21 00:00N 38°54' W 021°36'10016.7 010 / 151013.5 5.4 14.011.015.0
2017-Apr-20 18:00N 38°36' W 019°30'32818.2 360 / 151013.010.8 15.012.0
2017-Apr-20 00:00N 37°12' W 012°48'15017.6 350 / 181010.010.8 18.015.0
2017-Apr-19 15:28N 36°28' W 009°49'9719.0
2017-Apr-19 10:21N 36°08' W 007°51'1519.1
2017-Apr-19 09:34N 36°05' W 007°33'7919.1
2017-Apr-19 05:26N 35°58' W 005°56'1119.2
2017-Apr-19 04:50N 35°58' W 005°42'618.5
2017-Apr-19 04:30N 35°59' W 005°34'817.0
2017-Apr-19 04:00N 36°02' W 005°25'5 9.9
2017-Apr-19 03:30N 36°07' W 005°25'1 1.9
2017-Apr-19 03:00N 36°08' W 005°25'0 0.0
2017-Apr-19 02:30N 36°08' W 005°25'0 0.0
2017-Apr-19 02:00N 36°08' W 005°25'0 0.0
2017-Apr-19 01:30N 36°08' W 005°25'0 0.0
2017-Apr-19 00:57N 36°08' W 005°25'0 0.0
2017-Apr-19 00:30N 36°08' W 005°25'0 0.0
2017-Apr-19 00:00N 36°08' W 005°25'0 0.0
2017-Apr-18 23:30N 36°08' W 005°25'0 0.0
2017-Apr-18 23:00N 36°08' W 005°25'1 2.5
2017-Apr-18 22:30N 36°08' W 005°24'3 5.5
2017-Apr-18 22:00N 36°05' W 005°23'1 1.5
2017-Apr-18 21:31N 36°05' W 005°23'612.9
2017-Apr-18 21:00N 36°05' W 005°15'713.8
2017-Apr-18 20:30N 36°05' W 005°07'713.8
2017-Apr-18 20:00N 36°06' W 004°58'714.2
2017-Apr-18 19:30N 36°07' W 004°50'1014.2
2017-Apr-18 18:48N 36°08' W 004°37'414.3
2017-Apr-18 18:30N 36°09' W 004°32'713.7
2017-Apr-18 18:00N 36°10' W 004°24'713.6
2017-Apr-18 17:29N 36°11' W 004°15'713.6
2017-Apr-18 17:00N 36°12' W 004°07'714.3
2017-Apr-18 16:30N 36°13' W 003°58'714.1
2017-Apr-18 16:00N 36°14' W 003°50'713.9
2017-Apr-18 15:28N 36°15' W 003°41'713.8
2017-Apr-18 14:57N 36°16' W 003°32'613.5
2017-Apr-18 14:30N 36°17' W 003°24'1413.9
2017-Apr-18 13:30N 36°19' W 003°07'12213.4
2017-Apr-18 04:22N 37°20' W 000°55'615.2
2017-Apr-18 03:59N 37°24' W 000°49'715.2
2017-Apr-18 03:30N 37°29' W 000°42'815.3
2017-Apr-18 02:58N 37°34' W 000°34'715.1
2017-Apr-18 02:30N 37°40' W 000°29'1415.2
2017-Apr-18 01:34N 37°52' W 000°19'115.0
2017-Apr-18 01:29N 37°53' W 000°18'715.0
2017-Apr-18 01:00N 37°59' W 000°14'8612.0
2017-Apr-17 17:49N 39°25' W 000°16'3 8.6
2017-Apr-17 17:30N 39°26' W 000°19'1 1.3
2017-Apr-17 17:00N 39°27' W 000°19'0 0.0
2017-Apr-17 16:27N 39°27' W 000°19'0 0.0
2017-Apr-17 15:57N 39°27' W 000°19'0 0.0
2017-Apr-17 15:30N 39°27' W 000°19'0 0.0
2017-Apr-17 14:57N 39°27' W 000°19'0 0.0
2017-Apr-17 14:00N 39°27' W 000°19'0 0.0
2017-Apr-17 13:27N 39°27' W 000°19'0 0.0
2017-Apr-17 13:00N 39°27' W 000°19'0 0.0
2017-Apr-17 12:30N 39°27' W 000°19'0 0.0
2017-Apr-17 12:00N 39°27' W 000°19'0 0.0
2017-Apr-17 11:30N 39°27' W 000°19'0 0.0
2017-Apr-17 11:00N 39°27' W 000°19'0 0.0
2017-Apr-17 10:30N 39°27' W 000°19'0 0.0
2017-Apr-17 09:57N 39°27' W 000°19'0 0.0
2017-Apr-17 09:27N 39°27' W 000°19'0 0.0
2017-Apr-17 08:57N 39°27' W 000°19'0 0.1
2017-Apr-17 08:27N 39°27' W 000°19'0 0.0
2017-Apr-17 07:57N 39°27' W 000°19'0 0.0
2017-Apr-17 07:30N 39°27' W 000°19'0 0.0
2017-Apr-17 07:00N 39°27' W 000°19'0 0.0
2017-Apr-17 06:30N 39°27' W 000°19'0 0.0
2017-Apr-17 05:57N 39°27' W 000°19'0 0.0
2017-Apr-17 05:30N 39°27' W 000°19'0 0.0
2017-Apr-17 04:57N 39°27' W 000°19'0 0.1
2017-Apr-17 04:30N 39°27' W 000°19'0 0.0
2017-Apr-17 04:00N 39°27' W 000°19'0 0.0
2017-Apr-17 03:27N 39°27' W 000°19'0 0.0
2017-Apr-17 02:51N 39°27' W 000°19'0 0.0
2017-Apr-17 02:27N 39°27' W 000°19'0 0.0
2017-Apr-17 02:00N 39°27' W 000°19'0 0.0
2017-Apr-17 01:30N 39°27' W 000°19'0 0.0
2017-Apr-17 01:00N 39°27' W 000°19'0 0.0
2017-Apr-17 00:30N 39°27' W 000°19'0 0.0
2017-Apr-17 00:00N 39°27' W 000°19'0 0.0
2017-Apr-16 23:30N 39°27' W 000°19'0 0.0
2017-Apr-16 23:00N 39°27' W 000°19'0 0.0
2017-Apr-16 22:30N 39°27' W 000°19'0 0.0
2017-Apr-16 22:00N 39°27' W 000°19'0 0.0
2017-Apr-16 21:30N 39°27' W 000°19'0 0.0
2017-Apr-16 21:00N 39°27' W 000°19'0 0.0
2017-Apr-16 20:30N 39°27' W 000°19'0 0.0
2017-Apr-16 20:00N 39°27' W 000°19'0 0.0
2017-Apr-16 19:30N 39°27' W 000°19'0 0.0
2017-Apr-16 19:01N 39°27' W 000°19'2 4.7
2017-Apr-16 18:30N 39°25' W 000°17'5 9.8
2017-Apr-16 17:59N 39°27' W 000°11'812.1
2017-Apr-16 17:20N 39°32' W 000°03'6512.0
2017-Apr-16 11:52N 40°17' E 000°58'512.6
2017-Apr-16 11:30N 40°20' E 001°03'612.8
2017-Apr-16 11:00N 40°24' E 001°09'612.7
2017-Apr-16 10:30N 40°28' E 001°15'612.9
2017-Apr-16 10:00N 40°33' E 001°22'713.0
2017-Apr-16 09:30N 40°37' E 001°28'612.7
2017-Apr-16 09:00N 40°42' E 001°34'612.9
2017-Apr-16 08:30N 40°47' E 001°39'612.8
2017-Apr-16 08:00N 40°52' E 001°44'612.8
2017-Apr-16 07:30N 40°57' E 001°50'612.8
2017-Apr-16 07:00N 41°02' E 001°55'812.9
2017-Apr-16 06:24N 41°08' E 002°01'712.5
2017-Apr-16 05:49N 41°14' E 002°07'8 1.1
2017-Apr-15 22:55N 41°21' E 002°10'0 1.0
2017-Apr-15 22:28N 41°21' E 002°10'3 5.1
2017-Apr-15 21:50N 41°18' E 002°11'1413.6
2017-Apr-15 20:47N 41°10' E 002°27'414.9
2017-Apr-15 20:30N 41°08' E 002°32'815.2
2017-Apr-15 20:00N 41°04' E 002°41'815.4
2017-Apr-15 19:30N 41°01' E 002°50'815.5
2017-Apr-15 19:00N 40°57' E 002°59'815.7
2017-Apr-15 18:30N 40°53' E 003°08'815.6
2017-Apr-15 18:00N 40°49' E 003°17'815.7
2017-Apr-15 17:30N 40°45' E 003°26'26916.0
2017-Apr-15 00:42N 38°34' E 008°31'316.4
2017-Apr-15 00:30N 38°33' E 008°35'816.4
2017-Apr-15 00:00N 38°29' E 008°44'816.2
2017-Apr-14 23:30N 38°25' E 008°53'816.3
2017-Apr-14 23:00N 38°21' E 009°02'816.2
2017-Apr-14 22:30N 38°17' E 009°12'916.2
2017-Apr-14 21:58N 38°13' E 009°21'1016.1
2017-Apr-14 21:22N 38°09' E 009°32'816.2
2017-Apr-14 20:51N 38°05' E 009°41'5416.1
2017-Apr-14 17:31N 37°40' E 010°41'015.9
2017-Apr-14 17:30N 37°40' E 010°42'815.9
2017-Apr-14 17:00N 37°36' E 010°51'916.0
2017-Apr-14 16:26N 37°31' E 011°01'716.4
2017-Apr-14 16:00N 37°28' E 011°09'816.5
2017-Apr-14 15:30N 37°24' E 011°18'14516.0
2017-Apr-14 06:27N 36°34' E 014°07'  

Dump ship's entire track history